createdAt,value
2023-05-18T00:01:54.251Z,0.70
2023-05-18T00:04:24.283Z,0.97
2023-05-18T00:06:56.925Z,0.50
2023-05-18T00:09:25.657Z,0.43
2023-05-18T00:11:55.019Z,0.30
2023-05-18T00:14:23.082Z,0.40
2023-05-18T00:16:53.925Z,0.50
2023-05-18T00:19:24.292Z,0.80
2023-05-18T00:21:56.077Z,0.37
2023-05-18T00:24:24.242Z,0.67
2023-05-18T00:26:52.287Z,0.40
2023-05-18T00:29:21.681Z,0.53
2023-05-18T00:31:49.739Z,0.30
2023-05-18T00:34:18.015Z,0.20
2023-05-18T00:36:46.127Z,0.30
2023-05-18T00:39:14.132Z,0.50
2023-05-18T00:41:42.645Z,0.30
2023-05-18T00:44:10.732Z,0.30
2023-05-18T00:46:40.217Z,1.10
2023-05-18T00:49:08.479Z,1.20
2023-05-18T00:51:36.613Z,0.43
2023-05-18T00:54:05.538Z,0.40
2023-05-18T00:56:34.569Z,1.13
2023-05-18T00:59:03.884Z,0.60
2023-05-18T01:01:34.805Z,0.60
2023-05-18T01:04:05.135Z,0.37
2023-05-18T01:06:36.242Z,0.40
2023-05-18T01:09:07.537Z,0.40
2023-05-18T01:11:44.966Z,0.40
2023-05-18T01:14:19.894Z,0.43
2023-05-18T01:16:55.575Z,0.37
2023-05-18T01:19:51.453Z,0.50
2023-05-18T01:22:39.507Z,0.30
2023-05-18T01:25:19.788Z,0.30
2023-05-18T01:27:50.712Z,0.20
2023-05-18T01:30:19.136Z,0.30
2023-05-18T01:32:47.766Z,0.40
2023-05-18T01:35:15.795Z,0.30
2023-05-18T01:37:43.802Z,0.47
2023-05-18T01:40:12.043Z,0.83
2023-05-18T01:42:46.126Z,0.50
2023-05-18T01:45:22.828Z,0.40
2023-05-18T01:47:54.520Z,0.40
2023-05-18T01:50:32.899Z,0.37
2023-05-18T01:53:09.004Z,0.60
2023-05-18T01:55:38.852Z,0.40
2023-05-18T01:58:09.208Z,0.50
2023-05-18T02:00:38.802Z,0.40
2023-05-18T02:03:07.197Z,0.50
2023-05-18T02:05:35.285Z,0.43
2023-05-18T02:08:03.446Z,0.47
2023-05-18T02:10:31.575Z,0.53
2023-05-18T02:12:59.628Z,0.70
2023-05-18T02:15:27.724Z,0.67
2023-05-18T02:17:58.566Z,1.50
2023-05-18T02:20:28.937Z,0.40
2023-05-18T02:22:58.308Z,0.50
2023-05-18T02:25:26.434Z,0.93
2023-05-18T02:27:54.517Z,0.70
2023-05-18T02:30:22.593Z,0.50
2023-05-18T02:32:50.675Z,0.30
2023-05-18T02:35:20.083Z,0.43
2023-05-18T02:37:50.214Z,0.30
2023-05-18T02:40:18.424Z,2.03
2023-05-18T02:42:46.368Z,0.50
2023-05-18T02:45:14.420Z,0.50
2023-05-18T02:47:44.100Z,0.47
2023-05-18T02:50:12.708Z,0.57
2023-05-18T02:52:42.293Z,0.47
2023-05-18T02:55:10.954Z,1.73
2023-05-18T02:57:38.911Z,0.40
2023-05-18T03:00:11.726Z,2.53
2023-05-18T03:02:40.452Z,0.50
2023-05-18T03:05:09.767Z,0.73
2023-05-18T03:07:37.869Z,0.50
2023-05-18T03:10:09.022Z,0.30
2023-05-18T03:12:37.037Z,0.40
2023-05-18T03:15:05.601Z,1.60
2023-05-18T03:17:33.889Z,0.37
2023-05-18T03:20:04.659Z,0.53
2023-05-18T03:22:32.668Z,0.40
2023-05-18T03:25:02.423Z,0.47
2023-05-18T03:27:31.927Z,0.60
2023-05-18T03:29:59.982Z,0.70
2023-05-18T03:32:28.629Z,1.13
2023-05-18T03:34:56.690Z,0.60
2023-05-18T03:37:24.655Z,0.50
2023-05-18T03:39:52.661Z,0.83
2023-05-18T03:42:21.184Z,0.60
2023-05-18T03:44:50.846Z,0.90
2023-05-18T03:47:18.920Z,1.07
2023-05-18T03:49:47.059Z,0.60
2023-05-18T03:52:16.034Z,0.73
2023-05-18T03:54:44.322Z,0.60
2023-05-18T03:57:12.330Z,0.87
2023-05-18T03:59:40.469Z,1.30
2023-05-18T04:02:11.495Z,2.30
2023-05-18T04:04:42.139Z,2.90
2023-05-18T04:07:10.236Z,0.87
2023-05-18T04:09:38.325Z,0.60
2023-05-18T04:12:07.065Z,0.80
2023-05-18T04:14:35.286Z,1.20
2023-05-18T04:17:05.292Z,0.63
2023-05-18T04:19:35.153Z,0.80
2023-05-18T04:22:05.055Z,0.73
2023-05-18T04:24:34.657Z,1.00
2023-05-18T04:27:03.883Z,1.00
2023-05-18T04:29:31.997Z,0.80
2023-05-18T04:32:01.151Z,1.20
2023-05-18T04:34:29.940Z,0.63
2023-05-18T04:36:59.384Z,1.30
2023-05-18T04:39:27.870Z,2.77
2023-05-18T04:41:58.475Z,1.67
2023-05-18T04:44:27.570Z,1.10
2023-05-18T04:46:56.341Z,0.70
2023-05-18T04:49:26.256Z,0.90
2023-05-18T04:51:57.188Z,1.47
2023-05-18T04:54:28.283Z,1.00
2023-05-18T04:56:56.390Z,1.30
2023-05-18T04:59:26.443Z,1.13
2023-05-18T05:01:55.011Z,0.93
2023-05-18T05:04:23.896Z,1.00
2023-05-18T05:06:51.917Z,0.93
2023-05-18T05:09:20.103Z,1.00
2023-05-18T05:11:49.476Z,1.17
2023-05-18T05:14:17.756Z,1.60
2023-05-18T05:16:45.892Z,1.63
2023-05-18T05:19:14.122Z,1.07
2023-05-18T05:21:42.139Z,1.27
2023-05-18T05:24:10.264Z,1.40
2023-05-18T05:26:38.249Z,1.10
2023-05-18T05:29:07.868Z,1.80
2023-05-18T05:31:36.191Z,1.40
2023-05-18T05:34:04.281Z,1.20
2023-05-18T05:36:33.933Z,0.87
2023-05-18T05:39:01.926Z,1.17
2023-05-18T05:41:31.761Z,2.37
2023-05-18T05:44:00.528Z,1.57
2023-05-18T05:46:30.054Z,2.07
2023-05-18T05:48:58.005Z,0.93
2023-05-18T05:51:26.112Z,1.00
2023-05-18T05:53:54.237Z,1.30
2023-05-18T05:56:23.104Z,1.00
2023-05-18T05:58:51.933Z,1.27
2023-05-18T06:01:20.009Z,1.13
2023-05-18T06:03:49.548Z,1.00
2023-05-18T06:06:17.613Z,0.87
2023-05-18T06:08:45.600Z,1.43
2023-05-18T06:11:13.952Z,0.87
2023-05-18T06:13:41.999Z,1.37
2023-05-18T06:16:10.003Z,1.10
2023-05-18T06:18:38.161Z,0.70
2023-05-18T06:21:07.725Z,1.33
2023-05-18T06:23:35.757Z,1.03
2023-05-18T06:26:03.893Z,1.10
2023-05-18T06:28:31.992Z,1.10
2023-05-18T06:31:00.519Z,1.60
2023-05-18T06:33:28.654Z,1.93
2023-05-18T06:35:57.147Z,0.80
2023-05-18T06:38:26.698Z,1.23
2023-05-18T06:40:54.897Z,1.27
2023-05-18T06:43:25.493Z,1.50
2023-05-18T06:45:53.721Z,1.20
2023-05-18T06:48:22.469Z,1.10
2023-05-18T06:50:50.683Z,1.93
2023-05-18T06:53:18.661Z,1.80
2023-05-18T06:55:48.238Z,1.40
2023-05-18T06:58:16.354Z,2.10
2023-05-18T07:00:44.302Z,1.43
2023-05-18T07:03:12.662Z,2.40
2023-05-18T07:05:41.248Z,1.60
2023-05-18T07:08:09.937Z,1.33
2023-05-18T07:10:38.463Z,2.83
2023-05-18T07:13:07.794Z,1.60
2023-05-18T07:15:35.911Z,1.80
2023-05-18T07:18:05.177Z,1.80
2023-05-18T07:20:33.269Z,1.87
2023-05-18T07:23:01.549Z,1.73
2023-05-18T07:25:29.836Z,1.70
2023-05-18T07:27:58.670Z,1.57
2023-05-18T07:30:28.276Z,1.90
2023-05-18T07:32:56.957Z,2.10
2023-05-18T07:35:26.480Z,2.10
2023-05-18T07:37:55.140Z,3.27
2023-05-18T07:40:23.546Z,2.67
2023-05-18T07:42:51.533Z,2.60
2023-05-18T07:45:19.578Z,2.50
2023-05-18T07:47:49.095Z,1.63
2023-05-18T07:50:17.195Z,1.83
2023-05-18T07:52:45.382Z,2.07
2023-05-18T07:55:14.093Z,1.93
2023-05-18T07:57:42.784Z,1.43
2023-05-18T08:00:12.268Z,2.90
2023-05-18T08:02:40.644Z,3.87
2023-05-18T08:05:11.181Z,1.83
2023-05-18T08:07:39.414Z,2.27
2023-05-18T08:10:08.080Z,1.63
2023-05-18T08:12:38.838Z,1.83
2023-05-18T08:15:08.330Z,3.50
2023-05-18T08:17:36.347Z,1.80
2023-05-18T08:20:06.131Z,2.27
2023-05-18T08:22:35.525Z,1.83
2023-05-18T08:25:04.239Z,6.10
2023-05-18T08:27:32.493Z,2.50
2023-05-18T08:30:00.845Z,1.90
2023-05-18T08:32:28.986Z,1.97
2023-05-18T08:34:57.124Z,1.40
2023-05-18T08:37:29.468Z,1.40
2023-05-18T08:40:00.994Z,1.63
2023-05-18T08:42:45.602Z,3.70
2023-05-18T08:45:25.079Z,2.10
2023-05-18T08:47:57.659Z,1.83
2023-05-18T08:50:28.079Z,2.60
2023-05-18T08:52:57.249Z,1.50
2023-05-18T08:55:27.857Z,2.00
2023-05-18T08:58:00.099Z,2.67
2023-05-18T09:00:28.460Z,1.57
2023-05-18T09:02:56.951Z,1.43
2023-05-18T09:05:25.471Z,2.20
2023-05-18T09:07:53.996Z,1.87
2023-05-18T09:10:26.380Z,1.27
2023-05-18T09:12:58.007Z,5.87
2023-05-18T09:15:27.117Z,1.40
2023-05-18T09:17:55.981Z,2.80
2023-05-18T09:20:26.520Z,2.00
2023-05-18T09:22:54.928Z,3.33
2023-05-18T09:25:25.138Z,1.20
2023-05-18T09:27:53.459Z,1.53
2023-05-18T09:30:22.979Z,2.47
2023-05-18T09:32:51.251Z,0.90
2023-05-18T09:35:19.895Z,2.53
2023-05-18T09:37:48.453Z,2.57
2023-05-18T09:40:16.842Z,1.90
2023-05-18T09:42:46.123Z,1.67
2023-05-18T09:45:19.518Z,1.87
2023-05-18T09:47:51.635Z,13.80
2023-05-18T09:50:20.572Z,10.93
2023-05-18T09:52:49.449Z,10.33
2023-05-18T09:55:18.361Z,9.27
2023-05-18T09:57:47.588Z,10.07
2023-05-18T10:00:17.065Z,12.80
2023-05-18T10:02:49.079Z,10.73
2023-05-18T10:05:23.075Z,13.70
2023-05-18T10:07:52.664Z,18.63
2023-05-18T10:10:21.805Z,15.10
2023-05-18T10:12:52.170Z,12.97
2023-05-18T10:15:22.883Z,15.13
2023-05-18T10:20:27.070Z,12.67
2023-05-18T10:22:57.221Z,12.37
2023-05-18T10:25:27.921Z,12.37
2023-05-18T10:27:58.506Z,17.00
2023-05-18T10:30:28.612Z,15.53
2023-05-18T10:32:58.231Z,17.13
2023-05-18T10:35:30.266Z,12.73
2023-05-18T10:38:00.553Z,11.37
2023-05-18T10:40:30.324Z,11.70
2023-05-18T10:42:59.632Z,13.60
2023-05-18T10:45:28.251Z,11.77
2023-05-18T10:47:58.294Z,11.87
2023-05-18T10:50:29.224Z,13.70
2023-05-18T10:52:59.874Z,12.00
2023-05-18T10:55:29.393Z,14.00
2023-05-18T10:58:05.031Z,13.07
2023-05-18T11:00:36.869Z,16.33
2023-05-18T11:03:08.990Z,17.03
2023-05-18T11:05:40.099Z,13.27
2023-05-18T11:08:08.845Z,17.87
2023-05-18T11:10:41.131Z,14.70
2023-05-18T11:13:09.565Z,15.47
2023-05-18T11:16:06.837Z,15.63
2023-05-18T11:18:41.290Z,12.20
2023-05-18T11:21:51.876Z,16.53
2023-05-18T11:24:24.901Z,10.03
2023-05-18T11:26:54.690Z,15.57
2023-05-18T11:29:25.874Z,9.80
2023-05-18T11:31:55.381Z,8.00
2023-05-18T11:34:39.390Z,7.40
2023-05-18T11:37:10.645Z,6.23
2023-05-18T11:39:48.048Z,7.33
2023-05-18T11:42:20.647Z,8.47
2023-05-18T11:44:53.945Z,8.10
2023-05-18T11:47:22.176Z,7.03
2023-05-18T11:49:53.208Z,5.70
2023-05-18T11:52:23.824Z,5.40
2023-05-18T11:54:53.709Z,7.97
2023-05-18T11:57:26.726Z,6.00
2023-05-18T12:00:00.192Z,10.63
2023-05-18T12:02:29.527Z,5.53
2023-05-18T12:05:00.390Z,5.20
2023-05-18T12:07:32.408Z,7.10
2023-05-18T12:10:01.782Z,5.80
2023-05-18T12:12:30.477Z,5.70
2023-05-18T12:14:59.628Z,8.67
2023-05-18T12:17:39.327Z,7.50
2023-05-18T12:20:09.275Z,7.93
2023-05-18T12:22:38.789Z,6.20
2023-05-18T12:25:08.245Z,5.17
2023-05-18T12:27:39.828Z,6.73
2023-05-18T12:30:12.020Z,9.50
2023-05-18T12:32:40.348Z,5.63
2023-05-18T12:35:09.669Z,5.57
2023-05-18T12:37:45.937Z,8.27
2023-05-18T12:40:17.515Z,12.00
2023-05-18T12:42:55.345Z,7.27
2023-05-18T12:45:27.965Z,6.07
2023-05-18T12:47:56.520Z,6.77
2023-05-18T12:50:27.089Z,7.83
2023-05-18T12:52:57.731Z,8.20
2023-05-18T12:55:26.673Z,11.67
2023-05-18T12:58:03.228Z,12.93
2023-05-18T13:00:34.850Z,9.43
2023-05-18T13:03:11.855Z,8.73
2023-05-18T13:05:44.262Z,7.60
2023-05-18T13:08:18.881Z,11.37
2023-05-18T13:10:55.295Z,8.23
2023-05-18T13:13:29.752Z,9.63
2023-05-18T13:15:59.623Z,9.97
2023-05-18T13:18:28.604Z,10.60
2023-05-18T13:20:58.765Z,9.00
2023-05-18T13:23:30.134Z,8.53
2023-05-18T13:25:58.904Z,8.67
2023-05-18T13:28:28.662Z,8.80
2023-05-18T13:30:56.837Z,7.90
2023-05-18T13:33:24.978Z,10.03
2023-05-18T13:35:53.003Z,7.03
2023-05-18T13:38:21.093Z,6.63
2023-05-18T13:40:50.553Z,7.10
2023-05-18T13:43:18.517Z,6.47
2023-05-18T13:45:46.530Z,5.33
2023-05-18T13:48:15.077Z,6.13
2023-05-18T13:50:43.138Z,5.23
2023-05-18T13:53:11.161Z,8.13
2023-05-18T13:55:39.362Z,7.27
2023-05-18T13:58:08.721Z,4.90
2023-05-18T14:00:37.198Z,4.53
2023-05-18T14:03:06.517Z,4.67
2023-05-18T14:05:34.694Z,4.10
2023-05-18T14:08:02.717Z,4.13
2023-05-18T14:10:31.420Z,4.37
2023-05-18T14:12:59.810Z,3.30
2023-05-18T14:15:29.249Z,3.80
2023-05-18T14:17:57.859Z,4.30
2023-05-18T14:20:26.250Z,4.60
2023-05-18T14:22:54.246Z,4.00
2023-05-18T14:25:22.811Z,3.70
2023-05-18T14:27:50.770Z,3.50
2023-05-18T14:30:18.975Z,4.53
2023-05-18T14:32:48.549Z,3.63
2023-05-18T14:35:16.766Z,5.60
2023-05-18T14:37:44.835Z,5.10
2023-05-18T14:40:14.445Z,4.40
2023-05-18T14:42:42.422Z,6.37
2023-05-18T14:45:11.442Z,5.70
2023-05-18T14:47:39.540Z,6.67
2023-05-18T14:50:10.139Z,6.17
2023-05-18T14:52:38.582Z,8.23
2023-05-18T14:55:07.462Z,8.70
2023-05-18T14:57:35.519Z,9.53
2023-05-18T15:00:03.783Z,8.90
2023-05-18T15:02:32.144Z,10.50
2023-05-18T15:05:00.531Z,10.60
2023-05-18T15:07:30.366Z,11.70
2023-05-18T15:09:58.460Z,11.90
2023-05-18T15:12:27.019Z,7.90
2023-05-18T15:14:55.095Z,8.10
2023-05-18T15:17:23.143Z,8.10
2023-05-18T15:19:51.249Z,5.90
2023-05-18T15:22:19.316Z,7.43
2023-05-18T15:24:48.633Z,7.47
2023-05-18T15:27:16.980Z,7.03
2023-05-18T15:29:45.020Z,6.47
2023-05-18T15:32:13.485Z,8.00
2023-05-18T15:34:42.025Z,7.20
2023-05-18T15:37:10.035Z,6.87
2023-05-18T15:39:39.835Z,8.77
2023-05-18T15:42:09.386Z,8.63
2023-05-18T15:44:37.422Z,8.20
2023-05-18T15:47:06.176Z,11.90
2023-05-18T15:49:37.350Z,10.83
2023-05-18T15:52:05.766Z,6.77
2023-05-18T15:54:33.979Z,8.33
2023-05-18T15:57:03.783Z,8.73
2023-05-18T15:59:33.288Z,9.10
2023-05-18T16:02:01.453Z,9.53
2023-05-18T16:04:29.482Z,9.33
2023-05-18T16:06:57.711Z,9.27
2023-05-18T16:09:26.014Z,10.67
2023-05-18T16:11:54.039Z,9.13
2023-05-18T16:14:22.273Z,10.73
2023-05-18T16:16:52.227Z,8.57
2023-05-18T16:19:20.412Z,6.93
2023-05-18T16:21:49.274Z,9.67
2023-05-18T16:24:17.540Z,10.77
2023-05-18T16:26:46.750Z,14.17
2023-05-18T16:29:14.721Z,10.93
2023-05-18T16:31:45.220Z,13.50
2023-05-18T16:34:14.715Z,11.00
2023-05-18T16:36:42.786Z,11.00
2023-05-18T16:39:11.152Z,10.53
2023-05-18T16:41:39.681Z,8.90
2023-05-18T16:44:07.819Z,9.30
2023-05-18T16:46:36.051Z,7.90
2023-05-18T16:49:05.106Z,8.60
2023-05-18T16:51:34.506Z,9.77
2023-05-18T16:54:03.117Z,8.47
2023-05-18T16:56:31.247Z,8.00
2023-05-18T16:58:59.438Z,6.90
2023-05-18T17:01:29.024Z,9.93
2023-05-18T17:03:57.881Z,9.07
2023-05-18T17:06:26.732Z,11.03
2023-05-18T17:08:58.697Z,10.47
2023-05-18T17:11:27.836Z,10.10
2023-05-18T17:13:58.272Z,9.67
2023-05-18T17:16:27.395Z,9.07
2023-05-18T17:18:57.696Z,8.27
2023-05-18T17:21:28.447Z,10.50
2023-05-18T17:23:58.017Z,9.67
2023-05-18T17:26:30.481Z,10.70
2023-05-18T17:28:58.694Z,10.80
2023-05-18T17:31:27.513Z,15.87
2023-05-18T17:33:56.180Z,12.33
2023-05-18T17:36:24.820Z,9.77
2023-05-18T17:38:56.415Z,10.30
2023-05-18T17:41:26.142Z,25.07
2023-05-18T17:43:54.135Z,14.37
2023-05-18T17:46:22.278Z,11.80
2023-05-18T17:48:50.357Z,14.43
2023-05-18T17:51:18.421Z,13.47
2023-05-18T17:53:46.471Z,12.80
2023-05-18T17:56:14.550Z,14.27
2023-05-18T17:58:43.973Z,12.33
2023-05-18T18:01:12.369Z,14.50
2023-05-18T18:03:40.539Z,17.07
2023-05-18T18:06:08.869Z,17.33
2023-05-18T18:08:37.878Z,16.77
2023-05-18T18:11:09.018Z,14.10
2023-05-18T18:13:37.698Z,18.47
2023-05-18T18:16:08.296Z,15.50
2023-05-18T18:18:37.309Z,17.47
2023-05-18T18:21:06.377Z,16.37
2023-05-18T18:23:34.578Z,18.40
2023-05-18T18:26:04.209Z,17.00
2023-05-18T18:28:32.490Z,18.73
2023-05-18T18:31:01.019Z,15.73
2023-05-18T18:33:30.635Z,16.57
2023-05-18T18:35:59.001Z,16.00
2023-05-18T18:38:28.969Z,17.83
2023-05-18T18:41:01.725Z,17.03
2023-05-18T18:43:30.070Z,20.53
2023-05-18T18:45:58.201Z,18.67
2023-05-18T18:48:26.910Z,16.30
2023-05-18T18:50:56.322Z,18.37
2023-05-18T18:53:24.373Z,24.90
2023-05-18T18:55:53.070Z,20.43
2023-05-18T18:58:24.105Z,19.17
2023-05-18T19:00:52.195Z,17.13
2023-05-18T19:03:21.788Z,18.37
2023-05-18T19:05:50.758Z,16.70
2023-05-18T19:08:20.260Z,16.37
2023-05-18T19:10:48.491Z,18.03
2023-05-18T19:13:16.536Z,16.37
2023-05-18T19:15:45.588Z,16.10
2023-05-18T19:18:13.821Z,16.53
2023-05-18T19:20:41.933Z,17.70
2023-05-18T19:23:10.100Z,17.60
2023-05-18T19:25:39.462Z,15.83
2023-05-18T19:28:09.067Z,16.30
2023-05-18T19:30:37.126Z,19.27
2023-05-18T19:33:05.160Z,17.60
2023-05-18T19:35:33.774Z,17.43
2023-05-18T19:38:03.250Z,17.73
2023-05-18T19:40:32.570Z,16.13
2023-05-18T19:43:02.051Z,16.67
2023-05-18T19:45:33.715Z,17.50
2023-05-18T19:48:02.062Z,16.43
2023-05-18T19:50:33.492Z,18.47
2023-05-18T19:53:01.520Z,16.13
2023-05-18T19:55:29.733Z,18.67
2023-05-18T19:57:58.513Z,17.33
2023-05-18T20:00:28.096Z,17.20
2023-05-18T20:02:56.486Z,16.30
2023-05-18T20:05:25.613Z,17.30
2023-05-18T20:07:53.685Z,16.10
2023-05-18T20:10:21.850Z,16.07
2023-05-18T20:12:50.401Z,15.17
2023-05-18T20:15:19.190Z,14.53
2023-05-18T20:17:49.013Z,14.10
2023-05-18T20:20:17.588Z,13.13
2023-05-18T20:22:45.601Z,14.17
2023-05-18T20:25:13.603Z,13.90
2023-05-18T20:27:41.607Z,13.33
2023-05-18T20:30:10.402Z,13.50
2023-05-18T20:32:38.366Z,12.70
2023-05-18T20:35:08.299Z,12.40
2023-05-18T20:37:36.341Z,12.00
2023-05-18T20:40:09.093Z,12.27
2023-05-18T20:42:40.627Z,10.43
2023-05-18T20:45:09.804Z,10.30
2023-05-18T20:47:37.931Z,13.63
2023-05-18T20:50:09.176Z,11.77
2023-05-18T20:52:37.338Z,10.63
2023-05-18T20:55:05.800Z,13.47
2023-05-18T20:57:34.883Z,12.50
2023-05-18T21:00:02.995Z,16.17
2023-05-18T21:02:33.204Z,11.63
2023-05-18T21:05:04.478Z,12.23
2023-05-18T21:07:35.046Z,10.87
2023-05-18T21:10:03.498Z,11.13
2023-05-18T21:12:32.077Z,11.73
2023-05-18T21:15:00.259Z,10.17
2023-05-18T21:17:28.369Z,9.97
2023-05-18T21:19:56.671Z,10.70
2023-05-18T21:22:24.734Z,10.93
2023-05-18T21:24:54.156Z,10.50
2023-05-18T21:27:22.188Z,11.00
2023-05-18T21:29:50.177Z,12.43
2023-05-18T21:32:18.318Z,12.70
2023-05-18T21:34:46.388Z,11.97
2023-05-18T21:37:14.521Z,12.87
2023-05-18T21:39:44.088Z,13.53
2023-05-18T21:42:13.921Z,13.57
2023-05-18T21:44:41.956Z,14.10
2023-05-18T21:47:10.357Z,14.23
2023-05-18T21:49:38.457Z,14.13
2023-05-18T21:52:06.634Z,14.50
2023-05-18T21:54:35.571Z,14.60
2023-05-18T21:57:03.672Z,13.40
2023-05-18T21:59:33.143Z,12.90
2023-05-18T22:02:01.114Z,12.57
2023-05-18T22:04:29.283Z,13.23
2023-05-18T22:06:57.300Z,12.10
2023-05-18T22:09:25.374Z,11.40
2023-05-18T22:11:53.315Z,11.33
2023-05-18T22:14:21.436Z,11.47
2023-05-18T22:16:50.998Z,10.13
2023-05-18T22:19:19.117Z,9.30
2023-05-18T22:21:47.130Z,8.73
2023-05-18T22:24:15.140Z,7.60
2023-05-18T22:26:43.337Z,7.33
2023-05-18T22:29:11.527Z,9.90
2023-05-18T22:31:39.566Z,7.83
2023-05-18T22:34:09.022Z,7.53
2023-05-18T22:36:36.979Z,7.13
2023-05-18T22:39:05.298Z,7.17
2023-05-18T22:41:33.312Z,7.40
2023-05-18T22:44:01.723Z,7.57
2023-05-18T22:46:30.510Z,7.90
2023-05-18T22:48:59.256Z,7.47
2023-05-18T22:51:28.632Z,7.17
2023-05-18T22:53:56.784Z,6.57
2023-05-18T22:56:24.931Z,7.07
2023-05-18T22:58:53.044Z,6.80
2023-05-18T23:01:21.156Z,5.93
2023-05-18T23:03:49.207Z,6.33
2023-05-18T23:06:17.591Z,6.60
2023-05-18T23:08:46.925Z,6.00
2023-05-18T23:11:18.941Z,5.50
2023-05-18T23:13:47.091Z,5.93
2023-05-18T23:16:15.156Z,6.17
2023-05-18T23:18:45.491Z,7.07
2023-05-18T23:21:14.705Z,6.57
2023-05-18T23:23:42.810Z,6.97
2023-05-18T23:26:12.763Z,8.60
2023-05-18T23:28:40.823Z,7.53
2023-05-18T23:31:08.817Z,7.57
2023-05-18T23:33:37.403Z,9.70
2023-05-18T23:36:07.314Z,8.80
2023-05-18T23:38:37.816Z,10.43
2023-05-18T23:41:07.176Z,10.00
2023-05-18T23:43:37.163Z,11.37
2023-05-18T23:46:06.682Z,11.40
2023-05-18T23:48:35.190Z,11.73
2023-05-18T23:51:04.125Z,12.87
2023-05-18T23:53:33.545Z,11.77
2023-05-18T23:56:03.017Z,11.57
2023-05-18T23:58:33.365Z,12.60
